sensor_id;sensor_type;location;lat;lon;timestamp;P1;durP1;ratioP1;P2;durP2;ratioP2
39410;SDS011;26579;43.238;23.124;2022-10-18T00:00:29;8.38;;;4.93;;
39410;SDS011;26579;43.238;23.124;2022-10-18T00:02:54;11.05;;;4.85;;
39410;SDS011;26579;43.238;23.124;2022-10-18T00:05:20;9.48;;;4.60;;
39410;SDS011;26579;43.238;23.124;2022-10-18T00:07:46;9.45;;;4.95;;
39410;SDS011;26579;43.238;23.124;2022-10-18T00:10:11;12.00;;;5.32;;
39410;SDS011;26579;43.238;23.124;2022-10-18T00:12:37;10.43;;;5.05;;
39410;SDS011;26579;43.238;23.124;2022-10-18T00:15:04;10.50;;;5.70;;
39410;SDS011;26579;43.238;23.124;2022-10-18T00:17:35;7.47;;;4.03;;
39410;SDS011;26579;43.238;23.124;2022-10-18T00:20:01;8.75;;;4.40;;
39410;SDS011;26579;43.238;23.124;2022-10-18T00:22:28;7.82;;;4.53;;
39410;SDS011;26579;43.238;23.124;2022-10-18T00:24:54;10.27;;;4.57;;
39410;SDS011;26579;43.238;23.124;2022-10-18T00:27:19;11.27;;;4.72;;
39410;SDS011;26579;43.238;23.124;2022-10-18T00:29:46;9.48;;;4.38;;
39410;SDS011;26579;43.238;23.124;2022-10-18T00:32:11;11.52;;;4.68;;
39410;SDS011;26579;43.238;23.124;2022-10-18T00:34:38;9.98;;;5.75;;
39410;SDS011;26579;43.238;23.124;2022-10-18T00:37:04;7.32;;;4.05;;
39410;SDS011;26579;43.238;23.124;2022-10-18T00:39:30;8.02;;;4.22;;
39410;SDS011;26579;43.238;23.124;2022-10-18T00:41:56;10.07;;;4.45;;
39410;SDS011;26579;43.238;23.124;2022-10-18T00:46:52;17.05;;;4.65;;
39410;SDS011;26579;43.238;23.124;2022-10-18T00:49:25;7.47;;;4.45;;
39410;SDS011;26579;43.238;23.124;2022-10-18T00:51:55;6.82;;;4.22;;
39410;SDS011;26579;43.238;23.124;2022-10-18T00:54:24;11.07;;;4.35;;
39410;SDS011;26579;43.238;23.124;2022-10-18T00:56:52;10.88;;;4.88;;
39410;SDS011;26579;43.238;23.124;2022-10-18T00:59:18;10.13;;;4.20;;
39410;SDS011;26579;43.238;23.124;2022-10-18T01:01:45;7.85;;;4.15;;
39410;SDS011;26579;43.238;23.124;2022-10-18T01:04:14;9.68;;;4.47;;
39410;SDS011;26579;43.238;23.124;2022-10-18T01:06:56;7.35;;;3.95;;
39410;SDS011;26579;43.238;23.124;2022-10-18T01:09:35;7.32;;;3.92;;
39410;SDS011;26579;43.238;23.124;2022-10-18T01:12:17;23.00;;;4.93;;
39410;SDS011;26579;43.238;23.124;2022-10-18T01:31:10;8.93;;;3.90;;
39410;SDS011;26579;43.238;23.124;2022-10-18T01:33:50;6.68;;;3.88;;
39410;SDS011;26579;43.238;23.124;2022-10-18T01:36:22;5.78;;;3.50;;
39410;SDS011;26579;43.238;23.124;2022-10-18T01:38:58;6.95;;;4.35;;
39410;SDS011;26579;43.238;23.124;2022-10-18T01:41:28;8.30;;;4.13;;
39410;SDS011;26579;43.238;23.124;2022-10-18T01:43:56;7.07;;;3.88;;
39410;SDS011;26579;43.238;23.124;2022-10-18T01:46:24;9.02;;;3.70;;
39410;SDS011;26579;43.238;23.124;2022-10-18T01:48:51;9.18;;;3.47;;
39410;SDS011;26579;43.238;23.124;2022-10-18T01:51:22;6.78;;;3.80;;
39410;SDS011;26579;43.238;23.124;2022-10-18T01:53:52;8.75;;;3.90;;
39410;SDS011;26579;43.238;23.124;2022-10-18T01:58:45;6.88;;;3.70;;
39410;SDS011;26579;43.238;23.124;2022-10-18T02:02:06;12.25;;;4.57;;
39410;SDS011;26579;43.238;23.124;2022-10-18T02:07:49;10.85;;;4.25;;
39410;SDS011;26579;43.238;23.124;2022-10-18T02:10:29;8.60;;;4.22;;
39410;SDS011;26579;43.238;23.124;2022-10-18T02:12:47;8.57;;;4.38;;
39410;SDS011;26579;43.238;23.124;2022-10-18T02:15:16;7.45;;;3.70;;
39410;SDS011;26579;43.238;23.124;2022-10-18T02:17:45;8.15;;;3.78;;
39410;SDS011;26579;43.238;23.124;2022-10-18T02:20:11;8.30;;;4.70;;
39410;SDS011;26579;43.238;23.124;2022-10-18T02:22:40;9.30;;;4.57;;
39410;SDS011;26579;43.238;23.124;2022-10-18T02:25:09;6.63;;;3.97;;
39410;SDS011;26579;43.238;23.124;2022-10-18T02:27:38;8.15;;;4.35;;
39410;SDS011;26579;43.238;23.124;2022-10-18T02:30:04;8.70;;;4.32;;
39410;SDS011;26579;43.238;23.124;2022-10-18T02:32:32;8.45;;;4.57;;
39410;SDS011;26579;43.238;23.124;2022-10-18T02:35:07;6.78;;;3.75;;
39410;SDS011;26579;43.238;23.124;2022-10-18T02:37:43;8.13;;;3.92;;
39410;SDS011;26579;43.238;23.124;2022-10-18T02:40:12;6.05;;;3.50;;
39410;SDS011;26579;43.238;23.124;2022-10-18T02:42:43;6.60;;;3.63;;
39410;SDS011;26579;43.238;23.124;2022-10-18T02:45:14;9.85;;;3.28;;
39410;SDS011;26579;43.238;23.124;2022-10-18T02:47:41;9.40;;;3.63;;
39410;SDS011;26579;43.238;23.124;2022-10-18T02:50:07;9.30;;;4.35;;
39410;SDS011;26579;43.238;23.124;2022-10-18T02:52:33;8.23;;;3.78;;
39410;SDS011;26579;43.238;23.124;2022-10-18T02:54:59;6.88;;;4.32;;
39410;SDS011;26579;43.238;23.124;2022-10-18T02:57:24;8.55;;;4.25;;
39410;SDS011;26579;43.238;23.124;2022-10-18T02:59:50;14.85;;;4.68;;
39410;SDS011;26579;43.238;23.124;2022-10-18T03:02:15;10.15;;;4.70;;
39410;SDS011;26579;43.238;23.124;2022-10-18T03:04:41;6.88;;;4.40;;
39410;SDS011;26579;43.238;23.124;2022-10-18T03:07:07;9.50;;;5.72;;
39410;SDS011;26579;43.238;23.124;2022-10-18T03:09:32;12.50;;;6.00;;
39410;SDS011;26579;43.238;23.124;2022-10-18T03:11:58;12.50;;;5.80;;
39410;SDS011;26579;43.238;23.124;2022-10-18T03:14:24;13.57;;;5.35;;
39410;SDS011;26579;43.238;23.124;2022-10-18T03:16:50;8.20;;;4.68;;
39410;SDS011;26579;43.238;23.124;2022-10-18T03:19:15;7.57;;;4.60;;
39410;SDS011;26579;43.238;23.124;2022-10-18T03:21:41;10.25;;;5.50;;
39410;SDS011;26579;43.238;23.124;2022-10-18T03:24:07;10.73;;;6.13;;
39410;SDS011;26579;43.238;23.124;2022-10-18T03:26:33;15.05;;;5.97;;
39410;SDS011;26579;43.238;23.124;2022-10-18T03:28:58;12.00;;;5.72;;
39410;SDS011;26579;43.238;23.124;2022-10-18T03:31:24;9.60;;;5.32;;
39410;SDS011;26579;43.238;23.124;2022-10-18T03:33:50;10.05;;;4.53;;
39410;SDS011;26579;43.238;23.124;2022-10-18T03:36:15;9.85;;;4.97;;
39410;SDS011;26579;43.238;23.124;2022-10-18T03:38:41;10.13;;;5.18;;
39410;SDS011;26579;43.238;23.124;2022-10-18T03:41:07;7.90;;;4.30;;
39410;SDS011;26579;43.238;23.124;2022-10-18T03:43:33;6.30;;;3.60;;
39410;SDS011;26579;43.238;23.124;2022-10-18T03:45:59;9.75;;;5.65;;
39410;SDS011;26579;43.238;23.124;2022-10-18T03:48:25;12.45;;;6.20;;
39410;SDS011;26579;43.238;23.124;2022-10-18T03:50:50;8.65;;;5.53;;
39410;SDS011;26579;43.238;23.124;2022-10-18T03:53:16;12.57;;;6.40;;
39410;SDS011;26579;43.238;23.124;2022-10-18T03:55:42;14.30;;;6.10;;
39410;SDS011;26579;43.238;23.124;2022-10-18T03:58:07;11.13;;;4.88;;
39410;SDS011;26579;43.238;23.124;2022-10-18T04:00:34;9.52;;;5.13;;
39410;SDS011;26579;43.238;23.124;2022-10-18T04:02:59;11.57;;;5.90;;
39410;SDS011;26579;43.238;23.124;2022-10-18T04:05:25;9.85;;;4.80;;
39410;SDS011;26579;43.238;23.124;2022-10-18T04:07:51;9.07;;;4.68;;
39410;SDS011;26579;43.238;23.124;2022-10-18T04:10:17;8.43;;;4.80;;
39410;SDS011;26579;43.238;23.124;2022-10-18T04:12:43;10.05;;;4.85;;
39410;SDS011;26579;43.238;23.124;2022-10-18T04:15:08;8.90;;;5.07;;
39410;SDS011;26579;43.238;23.124;2022-10-18T04:17:34;9.85;;;5.13;;
39410;SDS011;26579;43.238;23.124;2022-10-18T04:20:00;10.82;;;5.40;;
39410;SDS011;26579;43.238;23.124;2022-10-18T04:22:26;10.40;;;5.93;;
39410;SDS011;26579;43.238;23.124;2022-10-18T04:24:51;10.52;;;5.18;;
39410;SDS011;26579;43.238;23.124;2022-10-18T04:27:17;10.55;;;5.38;;
39410;SDS011;26579;43.238;23.124;2022-10-18T04:29:43;14.88;;;6.80;;
39410;SDS011;26579;43.238;23.124;2022-10-18T04:32:09;7.35;;;5.20;;
39410;SDS011;26579;43.238;23.124;2022-10-18T04:34:35;11.20;;;4.97;;
39410;SDS011;26579;43.238;23.124;2022-10-18T04:37:00;7.90;;;4.70;;
39410;SDS011;26579;43.238;23.124;2022-10-18T04:39:26;9.07;;;4.35;;
39410;SDS011;26579;43.238;23.124;2022-10-18T04:41:52;8.35;;;4.00;;
39410;SDS011;26579;43.238;23.124;2022-10-18T04:44:17;8.43;;;4.28;;
39410;SDS011;26579;43.238;23.124;2022-10-18T04:46:43;5.95;;;3.72;;
39410;SDS011;26579;43.238;23.124;2022-10-18T04:49:09;5.72;;;3.33;;
39410;SDS011;26579;43.238;23.124;2022-10-18T04:51:34;7.60;;;3.58;;
39410;SDS011;26579;43.238;23.124;2022-10-18T04:54:00;9.80;;;4.55;;
39410;SDS011;26579;43.238;23.124;2022-10-18T04:56:26;7.90;;;4.60;;
39410;SDS011;26579;43.238;23.124;2022-10-18T04:58:51;8.77;;;4.47;;
39410;SDS011;26579;43.238;23.124;2022-10-18T05:01:17;6.43;;;3.90;;
39410;SDS011;26579;43.238;23.124;2022-10-18T05:03:43;7.15;;;3.83;;
39410;SDS011;26579;43.238;23.124;2022-10-18T05:06:09;5.97;;;3.58;;
39410;SDS011;26579;43.238;23.124;2022-10-18T05:08:34;6.65;;;3.50;;
39410;SDS011;26579;43.238;23.124;2022-10-18T05:11:00;7.68;;;3.85;;
39410;SDS011;26579;43.238;23.124;2022-10-18T05:13:26;9.73;;;5.38;;
39410;SDS011;26579;43.238;23.124;2022-10-18T05:15:52;8.75;;;5.68;;
39410;SDS011;26579;43.238;23.124;2022-10-18T05:18:18;10.95;;;4.65;;
39410;SDS011;26579;43.238;23.124;2022-10-18T05:20:44;11.00;;;5.20;;
39410;SDS011;26579;43.238;23.124;2022-10-18T05:23:10;9.98;;;4.68;;
39410;SDS011;26579;43.238;23.124;2022-10-18T05:25:42;9.15;;;3.92;;
39410;SDS011;26579;43.238;23.124;2022-10-18T05:28:08;15.38;;;6.25;;
39410;SDS011;26579;43.238;23.124;2022-10-18T05:30:38;10.18;;;4.75;;
39410;SDS011;26579;43.238;23.124;2022-10-18T05:33:05;8.75;;;4.55;;
39410;SDS011;26579;43.238;23.124;2022-10-18T05:35:32;9.70;;;5.35;;
39410;SDS011;26579;43.238;23.124;2022-10-18T05:38:00;9.85;;;5.70;;
39410;SDS011;26579;43.238;23.124;2022-10-18T05:40:26;10.30;;;4.78;;
39410;SDS011;26579;43.238;23.124;2022-10-18T05:42:52;5.60;;;3.25;;
39410;SDS011;26579;43.238;23.124;2022-10-18T05:45:18;9.45;;;4.32;;
39410;SDS011;26579;43.238;23.124;2022-10-18T05:47:43;18.73;;;10.15;;
39410;SDS011;26579;43.238;23.124;2022-10-18T05:50:09;6.25;;;3.47;;
39410;SDS011;26579;43.238;23.124;2022-10-18T05:52:35;6.32;;;2.80;;
39410;SDS011;26579;43.238;23.124;2022-10-18T05:55:00;5.80;;;2.95;;
39410;SDS011;26579;43.238;23.124;2022-10-18T05:57:26;4.07;;;2.70;;
39410;SDS011;26579;43.238;23.124;2022-10-18T05:59:52;5.00;;;3.10;;
39410;SDS011;26579;43.238;23.124;2022-10-18T06:02:17;10.15;;;3.05;;
39410;SDS011;26579;43.238;23.124;2022-10-18T06:04:43;9.90;;;3.35;;
39410;SDS011;26579;43.238;23.124;2022-10-18T06:07:09;6.25;;;4.10;;
39410;SDS011;26579;43.238;23.124;2022-10-18T06:09:35;8.95;;;4.13;;
39410;SDS011;26579;43.238;23.124;2022-10-18T06:12:01;11.98;;;5.07;;
39410;SDS011;26579;43.238;23.124;2022-10-18T06:14:27;7.03;;;4.45;;
39410;SDS011;26579;43.238;23.124;2022-10-18T06:16:53;6.60;;;3.80;;
39410;SDS011;26579;43.238;23.124;2022-10-18T06:19:19;7.97;;;3.97;;
39410;SDS011;26579;43.238;23.124;2022-10-18T06:21:45;9.57;;;3.30;;
39410;SDS011;26579;43.238;23.124;2022-10-18T06:24:10;6.75;;;3.67;;
39410;SDS011;26579;43.238;23.124;2022-10-18T06:26:36;8.73;;;4.85;;
39410;SDS011;26579;43.238;23.124;2022-10-18T06:29:02;6.32;;;2.90;;
39410;SDS011;26579;43.238;23.124;2022-10-18T06:31:27;6.90;;;3.33;;
39410;SDS011;26579;43.238;23.124;2022-10-18T06:33:54;7.82;;;3.40;;
39410;SDS011;26579;43.238;23.124;2022-10-18T06:36:21;8.70;;;3.55;;
39410;SDS011;26579;43.238;23.124;2022-10-18T06:38:46;7.72;;;3.85;;
39410;SDS011;26579;43.238;23.124;2022-10-18T06:41:13;36.25;;;7.60;;
39410;SDS011;26579;43.238;23.124;2022-10-18T06:43:38;15.50;;;6.95;;
39410;SDS011;26579;43.238;23.124;2022-10-18T06:46:05;20.77;;;7.53;;
39410;SDS011;26579;43.238;23.124;2022-10-18T06:48:32;19.98;;;5.53;;
39410;SDS011;26579;43.238;23.124;2022-10-18T06:51:01;11.45;;;5.45;;
39410;SDS011;26579;43.238;23.124;2022-10-18T06:53:32;10.25;;;6.30;;
39410;SDS011;26579;43.238;23.124;2022-10-18T06:56:00;10.73;;;6.28;;
39410;SDS011;26579;43.238;23.124;2022-10-18T06:58:27;15.43;;;6.40;;
39410;SDS011;26579;43.238;23.124;2022-10-18T07:00:53;12.90;;;7.53;;
39410;SDS011;26579;43.238;23.124;2022-10-18T07:03:19;19.08;;;8.25;;
39410;SDS011;26579;43.238;23.124;2022-10-18T07:05:45;18.67;;;9.90;;
39410;SDS011;26579;43.238;23.124;2022-10-18T07:08:10;19.13;;;10.68;;
39410;SDS011;26579;43.238;23.124;2022-10-18T07:10:36;20.33;;;11.55;;
39410;SDS011;26579;43.238;23.124;2022-10-18T07:13:02;19.00;;;13.00;;
39410;SDS011;26579;43.238;23.124;2022-10-18T07:15:27;17.40;;;11.95;;
39410;SDS011;26579;43.238;23.124;2022-10-18T07:17:53;16.60;;;9.68;;
39410;SDS011;26579;43.238;23.124;2022-10-18T07:20:19;17.55;;;8.82;;
39410;SDS011;26579;43.238;23.124;2022-10-18T07:22:44;22.38;;;9.10;;
39410;SDS011;26579;43.238;23.124;2022-10-18T07:25:10;25.48;;;11.10;;
39410;SDS011;26579;43.238;23.124;2022-10-18T07:27:42;22.42;;;11.00;;
39410;SDS011;26579;43.238;23.124;2022-10-18T07:30:08;16.85;;;11.23;;
39410;SDS011;26579;43.238;23.124;2022-10-18T07:32:35;17.35;;;10.48;;
39410;SDS011;26579;43.238;23.124;2022-10-18T07:35:01;23.98;;;14.32;;
39410;SDS011;26579;43.238;23.124;2022-10-18T07:37:29;12.15;;;6.82;;
39410;SDS011;26579;43.238;23.124;2022-10-18T07:39:54;10.88;;;6.72;;
39410;SDS011;26579;43.238;23.124;2022-10-18T07:42:20;9.23;;;5.88;;
39410;SDS011;26579;43.238;23.124;2022-10-18T07:44:46;10.43;;;5.90;;
39410;SDS011;26579;43.238;23.124;2022-10-18T07:47:20;8.05;;;5.60;;
39410;SDS011;26579;43.238;23.124;2022-10-18T07:49:46;9.07;;;5.95;;
39410;SDS011;26579;43.238;23.124;2022-10-18T07:52:11;9.45;;;5.25;;
39410;SDS011;26579;43.238;23.124;2022-10-18T07:54:37;9.15;;;5.55;;
39410;SDS011;26579;43.238;23.124;2022-10-18T07:57:03;9.55;;;5.43;;
39410;SDS011;26579;43.238;23.124;2022-10-18T07:59:29;9.48;;;4.75;;
39410;SDS011;26579;43.238;23.124;2022-10-18T08:01:55;7.65;;;5.43;;
39410;SDS011;26579;43.238;23.124;2022-10-18T08:04:20;10.88;;;6.10;;
39410;SDS011;26579;43.238;23.124;2022-10-18T08:06:46;8.27;;;5.30;;
39410;SDS011;26579;43.238;23.124;2022-10-18T08:09:12;8.85;;;5.72;;
39410;SDS011;26579;43.238;23.124;2022-10-18T08:11:37;8.98;;;4.72;;
39410;SDS011;26579;43.238;23.124;2022-10-18T08:14:03;6.60;;;4.13;;
39410;SDS011;26579;43.238;23.124;2022-10-18T08:16:29;7.70;;;4.10;;
39410;SDS011;26579;43.238;23.124;2022-10-18T08:18:58;6.90;;;4.50;;
39410;SDS011;26579;43.238;23.124;2022-10-18T08:21:25;11.63;;;4.80;;
39410;SDS011;26579;43.238;23.124;2022-10-18T08:23:51;9.25;;;4.97;;
39410;SDS011;26579;43.238;23.124;2022-10-18T08:26:18;8.13;;;4.85;;
39410;SDS011;26579;43.238;23.124;2022-10-18T08:28:45;10.57;;;5.13;;
39410;SDS011;26579;43.238;23.124;2022-10-18T08:31:12;9.43;;;5.00;;
39410;SDS011;26579;43.238;23.124;2022-10-18T08:33:39;7.22;;;4.90;;
39410;SDS011;26579;43.238;23.124;2022-10-18T08:36:06;8.93;;;5.63;;
39410;SDS011;26579;43.238;23.124;2022-10-18T08:38:35;8.73;;;4.97;;
39410;SDS011;26579;43.238;23.124;2022-10-18T08:44:14;5.43;;;4.18;;
39410;SDS011;26579;43.238;23.124;2022-10-18T08:46:45;6.43;;;3.80;;
39410;SDS011;26579;43.238;23.124;2022-10-18T08:52:11;5.35;;;4.20;;
39410;SDS011;26579;43.238;23.124;2022-10-18T08:54:48;9.55;;;4.18;;
39410;SDS011;26579;43.238;23.124;2022-10-18T08:57:20;6.30;;;3.88;;
39410;SDS011;26579;43.238;23.124;2022-10-18T08:59:45;7.70;;;4.35;;
39410;SDS011;26579;43.238;23.124;2022-10-18T09:05:04;7.75;;;3.50;;
39410;SDS011;26579;43.238;23.124;2022-10-18T09:26:21;9.68;;;3.58;;
39410;SDS011;26579;43.238;23.124;2022-10-18T09:32:20;6.20;;;4.28;;
39410;SDS011;26579;43.238;23.124;2022-10-18T09:37:01;5.70;;;3.58;;
39410;SDS011;26579;43.238;23.124;2022-10-18T09:39:31;7.65;;;4.70;;
39410;SDS011;26579;43.238;23.124;2022-10-18T09:44:38;5.35;;;3.92;;
39410;SDS011;26579;43.238;23.124;2022-10-18T09:47:22;6.22;;;3.72;;
39410;SDS011;26579;43.238;23.124;2022-10-18T09:50:24;8.27;;;3.70;;
39410;SDS011;26579;43.238;23.124;2022-10-18T09:52:51;5.45;;;3.60;;
39410;SDS011;26579;43.238;23.124;2022-10-18T09:55:32;6.70;;;3.90;;
39410;SDS011;26579;43.238;23.124;2022-10-18T09:58:04;5.40;;;3.85;;
39410;SDS011;26579;43.238;23.124;2022-10-18T10:00:33;6.20;;;3.28;;
39410;SDS011;26579;43.238;23.124;2022-10-18T10:03:06;5.40;;;3.40;;
39410;SDS011;26579;43.238;23.124;2022-10-18T10:05:37;8.30;;;2.97;;
39410;SDS011;26579;43.238;23.124;2022-10-18T10:08:03;6.65;;;3.25;;
39410;SDS011;26579;43.238;23.124;2022-10-18T10:10:29;7.30;;;4.47;;
39410;SDS011;26579;43.238;23.124;2022-10-18T10:16:00;4.95;;;3.08;;
39410;SDS011;26579;43.238;23.124;2022-10-18T10:18:31;5.93;;;2.88;;
39410;SDS011;26579;43.238;23.124;2022-10-18T10:20:59;5.93;;;3.42;;
39410;SDS011;26579;43.238;23.124;2022-10-18T10:23:38;6.63;;;2.83;;
39410;SDS011;26579;43.238;23.124;2022-10-18T10:29:01;6.63;;;3.65;;
39410;SDS011;26579;43.238;23.124;2022-10-18T10:31:27;5.22;;;3.28;;
39410;SDS011;26579;43.238;23.124;2022-10-18T10:36:54;5.28;;;3.35;;
39410;SDS011;26579;43.238;23.124;2022-10-18T10:39:21;5.47;;;2.80;;
39410;SDS011;26579;43.238;23.124;2022-10-18T10:41:52;4.97;;;3.10;;
39410;SDS011;26579;43.238;23.124;2022-10-18T10:44:30;7.65;;;4.93;;
39410;SDS011;26579;43.238;23.124;2022-10-18T10:46:58;11.00;;;4.35;;
39410;SDS011;26579;43.238;23.124;2022-10-18T10:52:02;6.18;;;3.97;;
39410;SDS011;26579;43.238;23.124;2022-10-18T10:54:29;8.20;;;3.65;;
39410;SDS011;26579;43.238;23.124;2022-10-18T10:56:59;8.75;;;2.85;;
39410;SDS011;26579;43.238;23.124;2022-10-18T10:59:26;5.30;;;3.17;;
39410;SDS011;26579;43.238;23.124;2022-10-18T11:02:10;4.47;;;2.67;;
39410;SDS011;26579;43.238;23.124;2022-10-18T11:04:39;4.35;;;2.72;;
39410;SDS011;26579;43.238;23.124;2022-10-18T11:09:43;5.68;;;3.20;;
39410;SDS011;26579;43.238;23.124;2022-10-18T11:15:14;6.53;;;3.45;;
39410;SDS011;26579;43.238;23.124;2022-10-18T11:17:59;3.78;;;2.83;;
39410;SDS011;26579;43.238;23.124;2022-10-18T11:20:40;36.33;;;8.82;;
39410;SDS011;26579;43.238;23.124;2022-10-18T11:23:12;370.00;;;49.72;;
39410;SDS011;26579;43.238;23.124;2022-10-18T11:25:45;75.00;;;11.35;;
39410;SDS011;26579;43.238;23.124;2022-10-18T11:28:31;72.05;;;11.02;;
39410;SDS011;26579;43.238;23.124;2022-10-18T11:45:13;4.10;;;2.55;;
39410;SDS011;26579;43.238;23.124;2022-10-18T11:50:47;4.40;;;2.70;;
39410;SDS011;26579;43.238;23.124;2022-10-18T11:53:23;3.80;;;2.90;;
39410;SDS011;26579;43.238;23.124;2022-10-18T12:01:42;3.90;;;2.47;;
39410;SDS011;26579;43.238;23.124;2022-10-18T12:04:32;4.85;;;2.55;;
39410;SDS011;26579;43.238;23.124;2022-10-18T12:07:02;3.78;;;2.75;;
39410;SDS011;26579;43.238;23.124;2022-10-18T12:09:37;6.97;;;3.10;;
39410;SDS011;26579;43.238;23.124;2022-10-18T12:12:08;6.57;;;2.90;;
39410;SDS011;26579;43.238;23.124;2022-10-18T12:14:45;4.80;;;2.70;;
39410;SDS011;26579;43.238;23.124;2022-10-18T12:17:26;5.35;;;2.88;;
39410;SDS011;26579;43.238;23.124;2022-10-18T12:19:57;7.90;;;3.80;;
39410;SDS011;26579;43.238;23.124;2022-10-18T12:22:27;5.50;;;2.75;;
39410;SDS011;26579;43.238;23.124;2022-10-18T12:24:59;4.70;;;2.55;;
39410;SDS011;26579;43.238;23.124;2022-10-18T12:27:32;4.75;;;2.78;;
39410;SDS011;26579;43.238;23.124;2022-10-18T12:30:06;4.50;;;2.67;;
39410;SDS011;26579;43.238;23.124;2022-10-18T12:32:42;6.20;;;2.50;;
39410;SDS011;26579;43.238;23.124;2022-10-18T12:35:12;4.82;;;2.85;;
39410;SDS011;26579;43.238;23.124;2022-10-18T12:43:08;4.45;;;2.08;;
39410;SDS011;26579;43.238;23.124;2022-10-18T12:45:48;8.65;;;3.47;;
39410;SDS011;26579;43.238;23.124;2022-10-18T12:48:38;8.02;;;3.05;;
39410;SDS011;26579;43.238;23.124;2022-10-18T12:51:12;6.38;;;3.10;;
39410;SDS011;26579;43.238;23.124;2022-10-18T12:54:29;12.65;;;3.50;;
39410;SDS011;26579;43.238;23.124;2022-10-18T12:56:38;5.63;;;2.63;;
39410;SDS011;26579;43.238;23.124;2022-10-18T13:02:25;5.00;;;2.70;;
39410;SDS011;26579;43.238;23.124;2022-10-18T13:07:39;4.40;;;3.25;;
39410;SDS011;26579;43.238;23.124;2022-10-18T13:15:43;4.40;;;2.75;;
39410;SDS011;26579;43.238;23.124;2022-10-18T13:18:18;8.75;;;2.97;;
39410;SDS011;26579;43.238;23.124;2022-10-18T13:28:57;6.32;;;3.40;;
39410;SDS011;26579;43.238;23.124;2022-10-18T13:36:54;7.45;;;3.25;;
39410;SDS011;26579;43.238;23.124;2022-10-18T13:39:31;7.78;;;3.38;;
39410;SDS011;26579;43.238;23.124;2022-10-18T13:44:27;6.88;;;3.20;;
39410;SDS011;26579;43.238;23.124;2022-10-18T13:49:46;7.15;;;3.53;;
39410;SDS011;26579;43.238;23.124;2022-10-18T14:05:48;7.10;;;3.15;;
39410;SDS011;26579;43.238;23.124;2022-10-18T14:11:05;9.13;;;4.00;;
39410;SDS011;26579;43.238;23.124;2022-10-18T14:13:47;8.55;;;3.78;;
39410;SDS011;26579;43.238;23.124;2022-10-18T14:21:55;7.93;;;4.20;;
39410;SDS011;26579;43.238;23.124;2022-10-18T14:24:28;8.80;;;4.70;;
39410;SDS011;26579;43.238;23.124;2022-10-18T14:29:44;8.60;;;4.07;;
39410;SDS011;26579;43.238;23.124;2022-10-18T14:32:25;6.13;;;3.53;;
39410;SDS011;26579;43.238;23.124;2022-10-18T14:34:53;6.75;;;4.22;;
39410;SDS011;26579;43.238;23.124;2022-10-18T14:37:23;9.80;;;4.47;;
39410;SDS011;26579;43.238;23.124;2022-10-18T14:39:52;4.60;;;3.55;;
39410;SDS011;26579;43.238;23.124;2022-10-18T14:42:22;7.50;;;3.88;;
39410;SDS011;26579;43.238;23.124;2022-10-18T14:44:49;11.07;;;6.88;;
39410;SDS011;26579;43.238;23.124;2022-10-18T14:47:16;8.50;;;4.72;;
39410;SDS011;26579;43.238;23.124;2022-10-18T14:49:49;8.93;;;6.10;;
39410;SDS011;26579;43.238;23.124;2022-10-18T14:52:19;6.80;;;3.92;;
39410;SDS011;26579;43.238;23.124;2022-10-18T14:54:48;8.60;;;4.20;;
39410;SDS011;26579;43.238;23.124;2022-10-18T14:57:15;9.45;;;4.60;;
39410;SDS011;26579;43.238;23.124;2022-10-18T14:59:47;10.50;;;5.80;;
39410;SDS011;26579;43.238;23.124;2022-10-18T15:02:26;14.25;;;6.43;;
39410;SDS011;26579;43.238;23.124;2022-10-18T15:04:54;11.80;;;7.60;;
39410;SDS011;26579;43.238;23.124;2022-10-18T15:07:20;29.35;;;16.05;;
39410;SDS011;26579;43.238;23.124;2022-10-18T15:09:46;24.08;;;14.80;;
39410;SDS011;26579;43.238;23.124;2022-10-18T15:12:13;26.13;;;15.32;;
39410;SDS011;26579;43.238;23.124;2022-10-18T15:14:40;20.48;;;11.07;;
39410;SDS011;26579;43.238;23.124;2022-10-18T15:17:11;18.65;;;9.75;;
39410;SDS011;26579;43.238;23.124;2022-10-18T15:19:52;13.15;;;9.30;;
39410;SDS011;26579;43.238;23.124;2022-10-18T15:22:27;17.42;;;8.73;;
39410;SDS011;26579;43.238;23.124;2022-10-18T15:25:14;12.35;;;8.32;;
39410;SDS011;26579;43.238;23.124;2022-10-18T15:27:45;17.33;;;8.45;;
39410;SDS011;26579;43.238;23.124;2022-10-18T15:30:15;13.35;;;8.50;;
39410;SDS011;26579;43.238;23.124;2022-10-18T15:32:52;14.75;;;9.48;;
39410;SDS011;26579;43.238;23.124;2022-10-18T15:35:27;16.35;;;10.10;;
39410;SDS011;26579;43.238;23.124;2022-10-18T15:37:58;24.13;;;14.05;;
39410;SDS011;26579;43.238;23.124;2022-10-18T15:40:30;36.80;;;21.83;;
39410;SDS011;26579;43.238;23.124;2022-10-18T15:43:02;36.83;;;22.90;;
39410;SDS011;26579;43.238;23.124;2022-10-18T15:45:35;33.80;;;19.70;;
39410;SDS011;26579;43.238;23.124;2022-10-18T15:50:37;24.67;;;16.63;;
39410;SDS011;26579;43.238;23.124;2022-10-18T15:53:24;28.80;;;17.67;;
39410;SDS011;26579;43.238;23.124;2022-10-18T15:55:56;33.67;;;18.83;;
39410;SDS011;26579;43.238;23.124;2022-10-18T15:58:26;40.00;;;20.25;;
39410;SDS011;26579;43.238;23.124;2022-10-18T16:00:55;54.63;;;29.40;;
39410;SDS011;26579;43.238;23.124;2022-10-18T16:03:23;36.42;;;21.52;;
39410;SDS011;26579;43.238;23.124;2022-10-18T16:05:55;38.90;;;22.83;;
39410;SDS011;26579;43.238;23.124;2022-10-18T16:08:25;26.95;;;18.40;;
39410;SDS011;26579;43.238;23.124;2022-10-18T16:10:52;27.63;;;18.67;;
39410;SDS011;26579;43.238;23.124;2022-10-18T16:13:18;24.00;;;15.73;;
39410;SDS011;26579;43.238;23.124;2022-10-18T16:15:44;21.90;;;12.75;;
39410;SDS011;26579;43.238;23.124;2022-10-18T16:18:14;15.63;;;9.80;;
39410;SDS011;26579;43.238;23.124;2022-10-18T16:20:42;18.35;;;11.23;;
39410;SDS011;26579;43.238;23.124;2022-10-18T16:23:18;18.27;;;11.80;;
39410;SDS011;26579;43.238;23.124;2022-10-18T16:25:48;20.45;;;13.75;;
39410;SDS011;26579;43.238;23.124;2022-10-18T16:28:18;24.30;;;12.10;;
39410;SDS011;26579;43.238;23.124;2022-10-18T16:30:50;19.25;;;11.05;;
39410;SDS011;26579;43.238;23.124;2022-10-18T16:33:18;17.00;;;9.90;;
39410;SDS011;26579;43.238;23.124;2022-10-18T16:35:44;18.77;;;11.80;;
39410;SDS011;26579;43.238;23.124;2022-10-18T16:38:16;25.45;;;13.50;;
39410;SDS011;26579;43.238;23.124;2022-10-18T16:40:53;19.83;;;12.65;;
39410;SDS011;26579;43.238;23.124;2022-10-18T16:43:19;41.63;;;20.42;;
39410;SDS011;26579;43.238;23.124;2022-10-18T16:45:45;43.67;;;22.60;;
39410;SDS011;26579;43.238;23.124;2022-10-18T16:48:12;28.77;;;16.08;;
39410;SDS011;26579;43.238;23.124;2022-10-18T16:50:39;26.52;;;16.10;;
39410;SDS011;26579;43.238;23.124;2022-10-18T16:53:05;31.10;;;18.52;;
39410;SDS011;26579;43.238;23.124;2022-10-18T16:55:31;34.63;;;19.45;;
39410;SDS011;26579;43.238;23.124;2022-10-18T16:57:57;33.10;;;19.92;;
39410;SDS011;26579;43.238;23.124;2022-10-18T17:00:22;49.97;;;27.15;;
39410;SDS011;26579;43.238;23.124;2022-10-18T17:02:48;48.75;;;27.15;;
39410;SDS011;26579;43.238;23.124;2022-10-18T17:05:15;41.08;;;22.63;;
39410;SDS011;26579;43.238;23.124;2022-10-18T17:07:41;45.72;;;25.38;;
39410;SDS011;26579;43.238;23.124;2022-10-18T17:10:10;37.78;;;21.65;;
39410;SDS011;26579;43.238;23.124;2022-10-18T17:12:37;30.10;;;17.00;;
39410;SDS011;26579;43.238;23.124;2022-10-18T17:15:03;28.38;;;17.58;;
39410;SDS011;26579;43.238;23.124;2022-10-18T17:17:29;25.60;;;15.75;;
39410;SDS011;26579;43.238;23.124;2022-10-18T17:19:55;21.40;;;12.68;;
39410;SDS011;26579;43.238;23.124;2022-10-18T17:22:21;27.52;;;16.75;;